NFC9344 GMMX-GCLP
Flight info
| Callsign | NFC9344 |
|---|---|
| Flight time | N/A |
| Altitude | 33000 |
| Route | LISRA4D LISRA UG850 ADM UN869 RUSIK RUSIK3D |
| Aircraft | B77L/H-SDE1E2E3FGHIJ2J3J4J5M1RWXY/LB1D1 |
Departure
| Time | N/A |
|---|---|
| Airport | Marrakesh Menara Airport (GMMX) |
Arrival
| Time | 2026-04-30 18:30 |
|---|---|
| Airport | Gran Canaria Airport (GCLP) |
| Time | Latitude | Longitude | Altitude | Speed | Heading |
|---|---|---|---|---|---|
| 2026-04-30 17:39 | 30.16764 | -9.77261 | 33074 ft | 449 kts | 252° |
| 2026-04-30 17:42 | 30.03745 | -10.09822 | 33095 ft | 446 kts | 251° |
| 2026-04-30 17:43 | 29.97230 | -10.26010 | 33087 ft | 445 kts | 251° |
| 2026-04-30 17:44 | 29.89387 | -10.45406 | 33101 ft | 444 kts | 251° |
| 2026-04-30 17:47 | 29.77619 | -10.74320 | 33096 ft | 442 kts | 250° |
| 2026-04-30 17:48 | 29.68468 | -10.96654 | 33105 ft | 441 kts | 250° |
| 2026-04-30 17:50 | 29.57990 | -11.22063 | 33102 ft | 440 kts | 250° |
| 2026-04-30 17:52 | 29.50110 | -11.41061 | 33107 ft | 440 kts | 249° |
| 2026-04-30 17:54 | 29.38238 | -11.69509 | 33101 ft | 440 kts | 249° |
| 2026-04-30 17:56 | 29.27634 | -11.94738 | 33101 ft | 440 kts | 249° |
| 2026-04-30 17:58 | 29.19668 | -12.13585 | 33105 ft | 439 kts | 249° |
| 2026-04-30 18:00 | 29.08981 | -12.38725 | 33105 ft | 439 kts | 249° |
| 2026-04-30 18:01 | 29.02294 | -12.54376 | 33106 ft | 440 kts | 249° |
| 2026-04-30 18:02 | 28.94235 | -12.73155 | 33103 ft | 440 kts | 248° |
| 2026-04-30 18:04 | 28.86900 | -12.92194 | 33106 ft | 434 kts | 253° |
| 2026-04-30 18:06 | 28.78271 | -13.17844 | 33100 ft | 434 kts | 252° |
| 2026-04-30 18:08 | 28.70597 | -13.40217 | 33109 ft | 434 kts | 252° |
| 2026-04-30 18:09 | 28.66176 | -13.53052 | 32324 ft | 437 kts | 251° |
| 2026-04-30 18:10 | 28.61837 | -13.65586 | 30378 ft | 418 kts | 251° |
| 2026-04-30 18:11 | 28.57642 | -13.77676 | 28273 ft | 404 kts | 251° |
| 2026-04-30 18:11 | 28.54570 | -13.86505 | 26765 ft | 397 kts | 251° |
| 2026-04-30 18:12 | 28.51557 | -13.95143 | 25310 ft | 391 kts | 251° |
| 2026-04-30 18:13 | 28.49894 | -13.99904 | 24561 ft | 389 kts | 251° |
| 2026-04-30 18:13 | 28.46914 | -14.08434 | 23135 ft | 386 kts | 252° |
| 2026-04-30 18:14 | 28.45200 | -14.14189 | 22109 ft | 384 kts | 255° |
| 2026-04-30 18:15 | 28.42802 | -14.22827 | 20635 ft | 381 kts | 254° |
| 2026-04-30 18:15 | 28.40124 | -14.32280 | 19066 ft | 375 kts | 253° |
| 2026-04-30 18:16 | 28.38793 | -14.36931 | 18298 ft | 371 kts | 253° |
| 2026-04-30 18:16 | 28.37207 | -14.42464 | 17267 ft | 366 kts | 253° |
| 2026-04-30 18:17 | 28.36168 | -14.46081 | 16601 ft | 363 kts | 253° |
| 2026-04-30 18:17 | 28.35387 | -14.48799 | 16111 ft | 361 kts | 253° |
| 2026-04-30 18:17 | 28.34088 | -14.53314 | 15309 ft | 357 kts | 253° |
| 2026-04-30 18:18 | 28.33329 | -14.55950 | 14841 ft | 355 kts | 253° |
| 2026-04-30 18:18 | 28.32563 | -14.58606 | 14381 ft | 353 kts | 252° |
| 2026-04-30 18:18 | 28.31801 | -14.61248 | 13925 ft | 351 kts | 252° |
| 2026-04-30 18:18 | 28.31042 | -14.63877 | 13416 ft | 349 kts | 252° |
| 2026-04-30 18:19 | 28.30287 | -14.66489 | 12911 ft | 347 kts | 252° |
| 2026-04-30 18:19 | 28.29535 | -14.69087 | 12414 ft | 346 kts | 252° |
| 2026-04-30 18:19 | 28.28788 | -14.71668 | 11925 ft | 344 kts | 252° |
| 2026-04-30 18:19 | 28.28043 | -14.74239 | 11435 ft | 342 kts | 252° |
| 2026-04-30 18:20 | 28.27302 | -14.76798 | 10973 ft | 340 kts | 252° |
| 2026-04-30 18:20 | 28.26564 | -14.79340 | 10495 ft | 339 kts | 252° |
| 2026-04-30 18:20 | 28.25839 | -14.81837 | 10041 ft | 337 kts | 252° |
| 2026-04-30 18:20 | 28.25107 | -14.84357 | 9521 ft | 335 kts | 252° |
| 2026-04-30 18:21 | 28.24378 | -14.86863 | 9032 ft | 334 kts | 252° |
| 2026-04-30 18:21 | 28.23652 | -14.89354 | 8532 ft | 332 kts | 252° |
| 2026-04-30 18:21 | 28.22929 | -14.91838 | 8037 ft | 331 kts | 252° |
| 2026-04-30 18:21 | 28.22208 | -14.94312 | 7551 ft | 330 kts | 252° |
| 2026-04-30 18:22 | 28.21490 | -14.96773 | 7065 ft | 328 kts | 252° |
| 2026-04-30 18:22 | 28.20061 | -15.01666 | 6106 ft | 325 kts | 252° |
| 2026-04-30 18:22 | 28.19360 | -15.04063 | 5621 ft | 324 kts | 252° |
| 2026-04-30 18:23 | 28.18652 | -15.06485 | 5136 ft | 323 kts | 252° |
| 2026-04-30 18:23 | 28.17947 | -15.08894 | 4644 ft | 321 kts | 252° |
| 2026-04-30 18:23 | 28.17244 | -15.11294 | 4151 ft | 320 kts | 252° |
| 2026-04-30 18:23 | 28.16546 | -15.13677 | 3649 ft | 318 kts | 252° |
| 2026-04-30 18:24 | 28.15161 | -15.18399 | 2753 ft | 311 kts | 252° |
| 2026-04-30 18:24 | 28.14484 | -15.20703 | 2380 ft | 306 kts | 252° |
| 2026-04-30 18:24 | 28.13819 | -15.22969 | 2004 ft | 301 kts | 251° |
| 2026-04-30 18:25 | 28.13180 | -15.25139 | 1894 ft | 286 kts | 251° |
| 2026-04-30 18:25 | 28.11996 | -15.29146 | 1875 ft | 249 kts | 249° |
| 2026-04-30 18:25 | 28.11099 | -15.30666 | 1865 ft | 222 kts | 214° |
| 2026-04-30 18:26 | 28.08387 | -15.31940 | 1884 ft | 205 kts | 201° |
| 2026-04-30 18:26 | 28.07097 | -15.32515 | 1939 ft | 192 kts | 201° |
| 2026-04-30 18:26 | 28.05929 | -15.33030 | 1925 ft | 168 kts | 201° |
| 2026-04-30 18:27 | 28.03757 | -15.33983 | 1893 ft | 173 kts | 200° |
| 2026-04-30 18:27 | 28.02656 | -15.34467 | 1879 ft | 162 kts | 201° |
| 2026-04-30 18:28 | 28.00689 | -15.35335 | 1313 ft | 140 kts | 201° |
| 2026-04-30 18:28 | 27.99795 | -15.35750 | 1030 ft | 135 kts | 200° |
| 2026-04-30 18:28 | 27.98016 | -15.36531 | 791 ft | 138 kts | 197° |
| 2026-04-30 18:29 | 27.97119 | -15.36920 | 669 ft | 142 kts | 199° |
| 2026-04-30 18:29 | 27.94443 | -15.38104 | 101 ft | 135 kts | 199° |
| 2026-04-30 18:30 | 27.92942 | -15.38764 | 64 ft | 78 kts | 200° |
| 2026-04-30 18:30 | 27.92287 | -15.39053 | 87 ft | 34 kts | 200° |
| 2026-04-30 18:31 | 27.92082 | -15.39145 | 88 ft | 30 kts | 201° |
| 2026-04-30 18:31 | 27.92073 | -15.39312 | 98 ft | 21 kts | 359° |
| 2026-04-30 18:32 | 27.92358 | -15.39226 | 103 ft | 22 kts | 21° |
| 2026-04-30 18:32 | 27.92502 | -15.39164 | 100 ft | 22 kts | 20° |
| 2026-04-30 18:32 | 27.92794 | -15.39038 | 94 ft | 22 kts | 22° |
| 2026-04-30 18:33 | 27.92868 | -15.39103 | 94 ft | 14 kts | 300° |
| 2026-04-30 18:33 | 27.93057 | -15.39067 | 90 ft | 16 kts | 22° |
| 2026-04-30 18:33 | 27.93162 | -15.39022 | 91 ft | 16 kts | 21° |
| 2026-04-30 18:34 | 27.93266 | -15.38977 | 89 ft | 16 kts | 21° |
| 2026-04-30 18:34 | 27.93377 | -15.39017 | 93 ft | 0 kts | 292° |